Weather History for Plainview, TX

Change the Weather History Date:

Friday, January 10, 2014

  Actual Average Record
Temperature  
Mean Temperature 44 °F -  
Max Temperature 59 °F 45 °F 76 °F (1909)
Min Temperature 30 °F 21 °F -2 °F (1930)
Degree Days  
Heating Degree Days 20    
Moisture  
Dew Point 20 °F    
Average Humidity 42    
Maximum Humidity 76    
Minimum Humidity 15    
Precipitation  
Precipitation 0.00 in - - ()
Sea Level Pressure  
Sea Level Pressure 29.78 in    
Wind  
Wind Speed 10 mph (West)    
Max Wind Speed 26 mph    
Max Gust Speed 34 mph    
Visibility 10 miles    
Events      
Averages and records for this station are not official NWS values.
T = Trace of Precipitation, MM = Missing Value Source: NWS Daily Summary

Daily Weather History Graph

Daily Weather History Graph

Search for Another Location

Airport:

Trip Planner

Search our weather history database for the weather conditions in past years. The results will help you decide how hot, cold, wet, or windy it might be!

Date:

Astronomy

Jan. 10, 2014 Rise Set
Actual Time 7:53 AM CST 5:55 PM CST
Civil Twilight 7:25 AM CST 6:23 PM CST
Nautical Twilight 6:54 AM CST 6:54 PM CST
Astronomical Twilight 6:24 AM CST 7:24 PM CST
Moon 1:57 PM CST (1/10) 3:06 AM CST (1/10)
Length of Visible Light 10h 57m
Length of Day
10h 02m
Waxing Gibbous, 75% of the Moon is Illuminated
Jan 10
Waxing Gibbous
Jan 15
Full
Jan 23
Last Quarter
Jan 30
New
Feb 6
First Quarter

Hourly Weather History & Observations

Time (CST) Temp. Windchill Dew Point Humidity Pressure Visibility Wind Dir Wind Speed Gust Speed Precip Events Conditions
12:15 AM 37.4 °F 32.8 °F 30.4 °F 76% 29.86 in 10.0 mi SW 5.8 mph - N/A   Clear
12:35 AM 39.7 °F 34.3 °F 31.5 °F 72% 29.86 in 10.0 mi SW 8.1 mph - N/A   Clear
12:55 AM 39.7 °F 34.9 °F 31.5 °F 72% 29.85 in 10.0 mi SW 6.9 mph - N/A   Clear
1:15 AM 39.4 °F 34.5 °F 31.1 °F 72% 29.84 in 10.0 mi SW 6.9 mph - N/A   Clear
1:35 AM 37.4 °F 32.8 °F 29.5 °F 73% 29.84 in 10.0 mi SW 5.8 mph - N/A   Clear
1:55 AM 37.6 °F 33.1 °F 29.7 °F 73% 29.82 in 10.0 mi SW 5.8 mph - N/A   Clear
2:15 AM 39.7 °F 33.2 °F 30.0 °F 68% 29.81 in 10.0 mi SW 10.4 mph - N/A   Clear
2:35 AM 40.1 °F 34.1 °F 28.8 °F 64% 29.80 in 10.0 mi SW 9.2 mph - N/A   Clear
2:55 AM 41.0 °F 34.7 °F 28.4 °F 61% 29.80 in 10.0 mi SW 10.4 mph - N/A   Clear
3:15 AM 42.3 °F 36.3 °F 29.1 °F 60% 29.79 in 10.0 mi SW 10.4 mph - N/A   Clear
3:35 AM 42.1 °F 37.7 °F 29.3 °F 61% 29.78 in 10.0 mi SW 6.9 mph - N/A   Clear
3:55 AM 41.4 °F 36.8 °F 28.8 °F 61% 29.78 in 10.0 mi SW 6.9 mph - N/A   Scattered Clouds
4:15 AM 41.0 °F 35.2 °F 28.8 °F 62% 29.79 in 10.0 mi WSW 9.2 mph - N/A   Scattered Clouds
4:35 AM 39.7 °F 34.3 °F 28.2 °F 63% 29.79 in 10.0 mi WSW 8.1 mph - N/A   Clear
4:55 AM 39.7 °F 33.7 °F 28.8 °F 65% 29.77 in 10.0 mi SW 9.2 mph - N/A   Clear
5:15 AM 37.8 °F 31.8 °F 27.3 °F 66% 29.78 in 10.0 mi WSW 8.1 mph - N/A   Clear
5:35 AM 37.4 °F 30.8 °F 27.1 °F 66% 29.77 in 10.0 mi SW 9.2 mph - N/A   Clear
5:55 AM 37.4 °F 31.4 °F 26.2 °F 64% 29.77 in 10.0 mi WSW 8.1 mph - N/A   Clear
6:15 AM 35.2 °F 29.5 °F 25.2 °F 67% 29.76 in 10.0 mi WSW 6.9 mph - N/A   Clear
6:35 AM 34.7 °F 27.5 °F 24.6 °F 67% 29.76 in 10.0 mi WSW 9.2 mph - N/A   Clear
6:55 AM 36.3 °F 28.9 °F 24.6 °F 63% 29.76 in 10.0 mi WSW 10.4 mph - N/A   Clear
7:15 AM 34.7 °F 27.5 °F 25.2 °F 68% 29.76 in 10.0 mi WSW 9.2 mph - N/A   Clear
7:35 AM 32.2 °F 24.4 °F 23.0 °F 69% 29.76 in 10.0 mi WSW 9.2 mph - N/A   Clear
7:55 AM 32.0 °F 24.2 °F 22.8 °F 69% 29.77 in 10.0 mi WSW 9.2 mph - N/A   Clear
8:15 AM 30.9 °F 22.2 °F 21.7 °F 69% 29.76 in 10.0 mi WSW 10.4 mph - N/A   Clear
8:35 AM 34.7 °F 26.9 °F 22.3 °F 61% 29.76 in 10.0 mi WSW 10.4 mph - N/A   Clear
8:55 AM 37.4 °F 30.3 °F 21.2 °F 52% 29.76 in 10.0 mi WSW 10.4 mph - N/A   Clear
9:15 AM 41.0 °F 33.9 °F 19.8 °F 43% 29.76 in 10.0 mi West 12.7 mph - N/A   Clear
9:35 AM 42.8 °F 35.4 °F 18.9 °F 38% 29.77 in 10.0 mi West 15.0 mph - N/A   Clear
9:55 AM 49.1 °F - 21.2 °F 33% 29.77 in 10.0 mi West 19.6 mph 24.2 mph N/A   Clear
10:15 AM 54.0 °F - 19.9 °F 26% 29.77 in 10.0 mi West 24.2 mph 31.1 mph N/A   Clear
10:35 AM 54.9 °F - 19.2 °F 25% 29.78 in 10.0 mi West 26.5 mph 34.5 mph N/A   Clear
10:55 AM 54.9 °F - 18.1 °F 24% 29.77 in 10.0 mi West 26.5 mph 33.4 mph N/A   Clear
11:15 AM 54.9 °F - 17.2 °F 23% 29.77 in 10.0 mi West 23.0 mph 33.4 mph N/A   Clear
11:35 AM 56.5 °F - 18.7 °F 23% 29.75 in 10.0 mi West 24.2 mph 34.5 mph N/A   Clear
11:55 AM 56.8 °F - 18.9 °F 23% 29.75 in 7.0 mi WNW 20.7 mph 33.4 mph N/A   Clear
12:15 PM 57.4 °F - 18.3 °F 22% 29.75 in 7.0 mi WNW 25.3 mph 33.4 mph N/A   Mostly Cloudy
12:35 PM 57.4 °F - 17.6 °F 21% 29.74 in 10.0 mi WNW 21.9 mph 28.8 mph N/A   Scattered Clouds
12:55 PM 57.6 °F - 16.3 °F 20% 29.72 in 10.0 mi NW 20.7 mph 25.3 mph N/A   Clear
1:15 PM 58.6 °F - 16.3 °F 19% 29.71 in 10.0 mi WNW 18.4 mph 25.3 mph N/A   Clear
1:35 PM 59.7 °F - 16.7 °F 19% 29.70 in 10.0 mi NW 17.3 mph 27.6 mph N/A   Clear
1:55 PM 59.9 °F - 15.8 °F 18% 29.71 in 10.0 mi WNW 18.4 mph 24.2 mph N/A   Clear
2:15 PM 59.9 °F - 14.0 °F 17% 29.70 in 10.0 mi WNW 19.6 mph 26.5 mph N/A   Clear
2:35 PM 57.6 °F - 16.5 °F 20% 29.70 in 10.0 mi North 9.2 mph 20.7 mph N/A   Clear
2:55 PM 57.6 °F - 16.7 °F 20% 29.70 in 10.0 mi North 10.4 mph 19.6 mph N/A   Clear
3:15 PM 57.4 °F - 16.7 °F 20% 29.70 in 10.0 mi North 9.2 mph 18.4 mph N/A   Clear
3:35 PM 57.6 °F - 16.0 °F 20% 29.70 in 10.0 mi North 11.5 mph - N/A   Clear
3:55 PM 58.6 °F - 16.3 °F 19% 29.71 in 10.0 mi North 10.4 mph - N/A   Clear
4:15 PM 57.9 °F - 15.1 °F 19% 29.71 in 10.0 mi North 5.8 mph - N/A   Clear
4:35 PM 58.1 °F - 14.2 °F 18% 29.72 in 10.0 mi NW 4.6 mph - N/A   Clear
4:55 PM 59.9 °F - 11.7 °F 15% 29.72 in 10.0 mi WNW 8.1 mph - N/A   Clear
5:15 PM 57.4 °F - 13.1 °F 17% 29.73 in 10.0 mi West 12.7 mph - N/A   Clear
5:35 PM 55.4 °F - 13.8 °F 19% 29.73 in 10.0 mi NNE 3.5 mph - N/A   Clear
5:55 PM 54.5 °F - 18.3 °F 24% 29.73 in 10.0 mi East 5.8 mph - N/A   Clear
6:15 PM 52.2 °F - 17.4 °F 25% 29.73 in 10.0 mi East 4.6 mph - N/A   Scattered Clouds
6:35 PM 50.2 °F - 16.7 °F 27% 29.74 in 10.0 mi East 4.6 mph - N/A   Clear
6:55 PM 51.6 °F - 17.4 °F 26% 29.75 in 10.0 mi East 3.5 mph - N/A   Clear
7:15 PM 50.0 °F - 17.6 °F 28% 29.76 in 10.0 mi ESE 4.6 mph - N/A   Clear
7:35 PM 45.5 °F 40.8 °F 16.5 °F 31% 29.79 in 10.0 mi NNE 9.2 mph - N/A   Clear
7:55 PM 42.6 °F 38.4 °F 15.8 °F 34% 29.80 in 10.0 mi NE 6.9 mph - N/A   Scattered Clouds
8:15 PM 41.9 °F 38.2 °F 15.6 °F 35% 29.81 in 10.0 mi NE 5.8 mph - N/A   Scattered Clouds
8:35 PM 41.4 °F 36.8 °F 14.9 °F 34% 29.82 in 10.0 mi NE 6.9 mph - N/A   Clear
8:55 PM 39.7 °F 35.6 °F 14.7 °F 36% 29.84 in 10.0 mi NE 5.8 mph - N/A   Clear
9:15 PM 40.3 °F 36.3 °F 14.9 °F 36% 29.84 in 10.0 mi ENE 5.8 mph - N/A   Scattered Clouds
9:35 PM 38.7 °F - 15.3 °F 39% 29.85 in 10.0 mi Calm Calm - N/A   Mostly Cloudy
9:55 PM 40.8 °F - 15.1 °F 35% 29.87 in 10.0 mi Calm Calm - N/A   Mostly Cloudy
10:15 PM 39.7 °F 37.6 °F 16.2 °F 38% 29.88 in 10.0 mi WNW 3.5 mph - N/A   Mostly Cloudy
10:35 PM 34.7 °F 31.8 °F 15.4 °F 45% 29.89 in 10.0 mi WNW 3.5 mph - N/A   Mostly Cloudy
10:55 PM 33.6 °F 27.5 °F 15.6 °F 48% 29.90 in 10.0 mi WNW 6.9 mph - N/A   Scattered Clouds
11:15 PM 31.5 °F 24.2 °F 14.5 °F 50% 29.91 in 10.0 mi WNW 8.1 mph - N/A   Clear
11:35 PM 34.7 °F 28.8 °F 15.4 °F 45% 29.91 in 10.0 mi WNW 6.9 mph - N/A   Clear
11:55 PM 32.0 °F 25.6 °F 14.0 °F 48% 29.93 in 10.0 mi NW 6.9 mph - N/A   Clear